Latest Weather Observations for Newcastle Nobbys

IDN60901

Issued at 8:11 pm EST Wednesday 6 May 2026 (issued every 10 minutes, with the page automatically refreshed every 10 minutes)

About weather observations | Map of Sydney area stations | Latest observations for Sydney area | Other Formats
Station Details ID: 061055 Name: NEWCASTLE NOBBYS SIGNAL STATION AWS Lat: -32.92 Lon: 151.80 Height: 33.0 m
Data from the previous 72 hours. | See also: Recent months at Newcastle Nobbys
Date/Time
EST
Temp
°C
App
Temp
°C
Dew
Point
°C
Rel
Hum
%
Delta-T
°C
Wind Press
QNH
hPa
Press
MSL
hPa
Rain since
9am
mm
Dir  Spd
km/h
Gust
km/h
Spd
kts
Gust
kts
06/08:00pm 19.7 19.1 14.5 72 3.0 NNE 11 13 6 7 - - 0.0
06/07:30pm 19.9 19.6 14.5 71 3.1 E 9 13 5 7 - - 0.0
06/07:00pm 19.9 19.9 14.3 70 3.3 ESE 7 11 4 6 - - 0.0
06/06:30pm 19.8 19.4 14.2 70 3.2 ESE 9 11 5 6 - - 0.0
06/06:00pm 19.7 19.1 13.6 68 3.5 ESE 9 11 5 6 - - 0.0
06/05:30pm 19.8 18.6 14.0 69 3.3 SE 13 17 7 9 - - 0.0
06/05:00pm 20.0 18.8 14.1 69 3.4 SE 13 17 7 9 - - 0.0
06/04:30pm 20.1 18.3 13.3 65 3.9 SSE 15 17 8 9 - - 0.0
06/04:00pm 20.3 19.0 13.7 66 3.8 SSE 13 17 7 9 - - 0.0
06/03:30pm 20.7 19.3 14.6 68 3.6 SSE 15 19 8 10 - - 0.0
06/03:00pm 20.4 19.1 14.7 70 3.3 SSE 15 19 8 10 - - 0.0
06/02:30pm 20.0 18.2 14.4 70 3.3 S 17 20 9 11 - - 0.0
06/02:00pm 20.1 18.4 14.7 71 3.2 S 17 20 9 11 - - 0.0
06/01:30pm 20.3 18.4 15.3 73 3.0 SSW 19 22 10 12 - - 0.0
06/01:00pm 20.1 18.5 14.9 72 3.1 SSW 17 22 9 12 - - 0.0
06/12:30pm 20.0 18.3 14.6 71 3.2 S 17 22 9 12 - - 0.0
06/12:00pm 19.8 17.7 13.7 68 3.5 SSW 17 20 9 11 - - 0.0
06/11:30am 19.8 17.6 13.3 66 3.7 SSW 17 20 9 11 - - 0.0
06/11:00am 19.9 18.3 12.7 63 4.1 SSW 13 17 7 9 - - 0.0
06/10:30am 19.6 18.9 12.1 62 4.2 S 7 13 4 7 - - 0.0
06/10:00am 19.3 18.7 11.8 62 4.1 NNW 6 9 3 5 - - 0.0
06/09:30am 18.1 17.3 11.7 66 3.5 NNW 7 11 4 6 - - 0.0
06/09:00am 16.8 15.5 11.3 70 3.0 NW 9 13 5 7 - - 0.2
06/08:30am 15.1 13.3 10.7 75 2.3 NW 11 13 6 7 - - 0.2
06/08:00am 13.5 11.5 10.3 81 1.7 NW 11 13 6 7 - - 0.2
06/07:30am 12.3 9.9 10.0 86 1.2 NW 13 17 7 9 - - 0.2
06/07:00am 12.1 10.0 9.7 85 1.2 NW 11 13 6 7 - - 0.2
06/06:30am 11.9 9.7 9.5 85 1.2 NW 11 15 6 8 - - 0.2
06/06:00am 12.2 10.5 9.8 85 1.2 NW 9 13 5 7 - - 0.2
06/05:30am 12.4 10.7 10.0 85 1.2 NW 9 15 5 8 - - 0.2
06/05:00am 12.4 10.4 10.0 85 1.2 WNW 11 13 6 7 - - 0.2
06/04:30am 12.8 11.3 10.5 86 1.2 NW 9 11 5 6 - - 0.2
06/04:00am 13.2 12.1 10.7 85 1.3 NW 7 9 4 5 - - 0.2
06/03:30am 12.8 11.1 10.0 83 1.4 NW 9 11 5 6 - - 0.2
06/03:00am 13.0 11.0 10.0 82 1.5 WNW 11 15 6 8 - - 0.2
06/02:30am 13.7 11.7 10.3 80 1.8 NW 11 15 6 8 - - 0.2
06/02:00am 14.2 12.4 10.8 80 1.8 NW 11 13 6 7 - - 0.2
06/01:30am 14.3 12.5 10.7 79 1.9 NW 11 13 6 7 - - 0.2
06/01:00am 15.0 13.6 10.8 76 2.2 NW 9 11 5 6 - - 0.2
06/12:30am 15.3 14.0 11.1 76 2.2 WNW 9 11 5 6 - - 0.2
06/12:00am 15.5 14.5 10.9 74 2.4 WNW 7 11 4 6 - - 0.2
 
Date/Time
EST
Temp
°C
App
Temp
°C
Dew
Point
°C
Rel
Hum
%
Delta-T
°C
Wind Press
QNH
hPa
Press
MSL
hPa
Rain since
9am
mm
Dir  Spd
km/h
Gust
km/h
Spd
kts
Gust
kts
05/11:30pm 16.0 15.1 11.2 73 2.6 NW 7 9 4 5 - - 0.2
05/11:00pm 16.8 15.9 11.3 70 3.0 WNW 7 9 4 5 - - 0.2
05/10:30pm 17.8 17.2 11.8 68 3.3 W 6 7 3 4 - - 0.2
05/10:00pm 17.5 16.6 11.5 68 3.3 WNW 7 9 4 5 - - 0.2
05/09:30pm 17.8 17.2 10.4 62 4.0 WNW 4 7 2 4 - - 0.2
05/09:00pm 17.8 17.2 11.8 68 3.3 WNW 6 7 3 4 - - 0.2
05/08:30pm 17.6 16.8 11.2 66 3.5 WNW 6 6 3 3 - - 0.2
05/08:00pm 18.2 17.6 11.7 66 3.6 WNW 6 7 3 4 - - 0.2
05/07:30pm 18.4 18.0 11.0 62 4.0 W 4 6 2 3 - - 0.2
05/07:00pm 18.9 18.1 11.2 61 4.2 WNW 6 9 3 5 - - 0.2
05/06:30pm 19.3 18.4 9.2 52 5.3 SSE 4 6 2 3 - - 0.2
05/06:00pm 19.3 18.1 9.5 53 5.2 SE 6 7 3 4 - - 0.2
05/05:30pm 19.4 18.1 10.1 55 5.0 SE 7 11 4 6 - - 0.2
05/05:00pm 19.8 18.0 9.4 51 5.5 ESE 9 11 5 6 - - 0.2
05/04:30pm 19.8 18.4 9.4 51 5.5 ESE 7 9 4 5 - - 0.2
05/04:00pm 20.1 18.2 9.1 49 5.8 SE 9 11 5 6 - - 0.2
05/03:30pm 20.1 17.9 9.4 50 5.7 SSE 11 13 6 7 - - 0.2
05/03:00pm 20.4 17.6 9.9 51 5.6 SSE 15 17 8 9 - - 0.2
05/02:30pm 21.8 19.0 8.7 43 6.9 SW 13 20 7 11 - - 0.2
05/02:00pm 22.4 20.5 9.2 43 7.1 NW 9 15 5 8 - - 0.2
05/01:30pm 22.1 20.4 9.9 46 6.6 WNW 9 15 5 8 - - 0.2
05/01:00pm 21.3 19.7 10.2 49 6.0 NW 9 15 5 8 - - 0.2
05/12:30pm 20.1 17.5 9.4 50 5.7 NW 13 17 7 9 - - 0.2
05/12:00pm 20.1 17.8 9.1 49 5.8 NW 11 17 6 9 - - 0.2
05/11:30am 19.5 17.5 10.2 55 5.0 NW 11 19 6 10 - - 0.0
05/11:00am 18.9 15.5 7.7 48 5.7 WNW 15 19 8 10 - - 0.0
05/10:30am 18.7 15.2 8.9 53 5.1 WNW 17 26 9 14 - - 0.0
05/10:00am 18.8 16.5 9.0 53 5.1 W 11 19 6 10 - - 0.0
05/09:30am 18.1 15.4 8.9 55 4.8 W 13 19 7 10 - - 0.0
05/09:00am 17.5 14.7 8.6 56 4.6 W 13 22 7 12 - - 3.6
05/08:30am 17.0 15.3 9.9 63 3.7 SW 9 17 5 9 - - 3.6
05/08:00am 16.8 14.0 10.0 64 3.6 SW 15 24 8 13 - - 3.6
05/07:30am 16.3 14.9 11.0 71 2.8 SW 9 13 5 7 - - 3.6
05/07:00am 15.9 16.2 13.4 85 1.4 WSW 4 7 2 4 - - 3.6
05/06:30am 16.6 16.5 15.0 90 0.9 W 9 15 5 8 - - 3.6
05/06:00am 17.1 17.3 15.8 92 0.8 NW 9 13 5 7 - - 3.6
05/05:30am 17.3 17.2 16.0 92 0.8 NW 11 13 6 7 - - 3.6
05/05:00am 17.3 17.6 16.0 92 0.8 WNW 9 13 5 7 - - 3.6
05/04:30am 17.4 16.2 16.1 92 0.8 WNW 17 22 9 12 - - 3.6
05/04:00am 17.4 16.2 16.1 92 0.8 NW 17 20 9 11 - - 3.6
05/03:30am 17.4 16.6 16.1 92 0.8 NW 15 19 8 10 - - 3.6
05/03:00am 17.6 16.8 16.1 91 0.9 NW 15 20 8 11 - - 3.6
05/02:30am 17.8 16.6 16.1 90 1.0 NW 17 24 9 13 - - 3.2
05/02:00am 18.1 15.6 16.1 88 1.2 NW 24 32 13 17 - - 2.6
05/01:30am 18.0 15.9 16.2 89 1.1 WNW 22 26 12 14 - - 1.2
05/01:00am 18.1 17.0 16.3 89 1.1 NW 17 20 9 11 - - 1.2
05/12:30am 18.1 18.1 16.3 89 1.1 NNW 11 15 6 8 - - 1.0
05/12:00am 17.9 18.6 16.1 89 1.1 WNW 7 17 4 9 - - 1.0
 
Date/Time
EST
Temp
°C
App
Temp
°C
Dew
Point
°C
Rel
Hum
%
Delta-T
°C
Wind Press
QNH
hPa
Press
MSL
hPa
Rain since
9am
mm
Dir  Spd
km/h
Gust
km/h
Spd
kts
Gust
kts
04/11:30pm 18.2 17.5 16.4 89 1.1 NNW 15 20 8 11 - - 0.8
04/11:00pm 18.6 19.5 16.6 88 1.2 NNW 7 11 4 6 - - 0.6
04/10:30pm 18.3 17.9 16.3 88 1.2 NW 13 15 7 8 - - 0.6
04/10:00pm 18.7 18.3 16.3 86 1.4 WNW 13 19 7 10 - - 0.6
04/09:30pm 18.9 18.8 16.1 84 1.7 NW 11 17 6 9 - - 0.6
04/09:00pm 18.7 17.5 16.1 85 1.5 N 17 20 9 11 - - 0.6
04/08:30pm 19.0 18.1 15.9 82 1.8 NW 15 20 8 11 - - 0.2
04/08:00pm 19.4 17.7 15.7 79 2.2 NW 19 26 10 14 - - 0.0
04/07:30pm 20.1 18.5 14.9 72 3.1 NW 17 24 9 13 - - 0.0
04/07:00pm 20.3 18.7 15.1 72 3.1 NNW 17 20 9 11 - - 0.0
04/06:30pm 21.5 19.6 14.2 63 4.3 NW 17 20 9 11 - - 0.0
04/06:00pm 21.8 21.6 15.6 68 3.7 NNW 11 13 6 7 - - 0.0
04/05:30pm 22.1 22.1 14.2 61 4.6 NNW 7 11 4 6 - - 0.0
04/05:00pm 22.5 23.9 17.4 73 3.2 NNW 6 7 3 4 - - 0.0
04/04:30pm 22.4 24.5 18.0 76 2.7 NE 4 7 2 4 - - 0.0
04/04:00pm 22.7 24.7 17.8 74 3.0 NE 4 6 2 3 - - 0.0
04/03:30pm 23.0 25.3 17.7 72 3.3 E 2 6 1 3 - - 0.0
04/03:00pm 22.5 23.3 17.4 73 3.2 ESE 9 13 5 7 - - 0.0
04/02:30pm 22.9 24.5 17.8 73 3.2 S 6 7 3 4 - - 0.0
04/02:00pm 23.3 24.4 18.0 72 3.3 SSE 9 11 5 6 - - 0.0
04/01:30pm 23.2 23.4 16.7 67 4.0 E 11 13 6 7 - - 0.0
04/01:00pm 23.0 22.7 16.5 67 4.0 E 13 15 7 8 - - 0.0
04/12:30pm 23.3 23.4 15.4 61 4.7 ESE 9 11 5 6 - - 0.0
04/12:00pm 24.9 25.9 16.3 59 5.3 ESE 6 7 3 4 - - 0.0
04/11:30am 23.8 24.8 16.3 63 4.6 ESE 6 9 3 5 - - 0.0
04/11:00am 24.3 25.3 16.3 61 4.9 ENE 6 9 3 5 - - 0.0
04/10:30am 23.0 24.2 15.8 64 4.3 ENE 4 7 2 4 - - 0.0
04/10:00am 22.1 22.0 15.0 64 4.2 N 9 13 5 7 - - 0.0
04/09:30am 20.6 20.9 14.9 70 3.4 N 7 11 4 6 - - 0.0
04/09:00am 20.5 21.2 15.5 73 3.0 N 6 7 3 4 - - 0.0
04/08:30am 19.5 20.1 15.4 77 2.4 NNE 6 7 3 4 - - 0.0
04/08:00am 18.1 17.6 15.0 82 1.8 N 11 15 6 8 - - 0.0
04/07:30am 17.5 17.7 14.8 84 1.6 N 7 9 4 5 - - 0.0
04/07:00am 17.2 17.0 14.8 86 1.4 N 9 11 5 6 - - 0.0
04/06:30am 17.1 16.9 14.6 85 1.4 N 9 11 5 6 - - 0.0
04/06:00am 17.5 17.3 14.8 84 1.6 N 9 11 5 6 - - 0.0
04/05:30am 17.5 16.1 14.6 83 1.7 NNE 15 17 8 9 - - 0.0
04/05:00am 17.5 16.8 14.4 82 1.8 N 11 13 6 7 - - 0.0
04/04:30am 17.8 17.7 14.9 83 1.7 N 9 11 5 6 - - 0.0
04/04:00am 18.1 18.1 15.2 83 1.7 N 9 13 5 7 - - 0.0
04/03:30am 18.4 18.4 15.1 81 1.9 NNW 9 13 5 7 - - 0.0
04/03:00am 18.5 17.8 14.4 77 2.4 N 11 13 6 7 - - 0.0
04/02:30am 18.7 18.2 14.8 78 2.3 NNE 11 13 6 7 - - 0.0
04/02:00am 19.1 18.6 14.8 76 2.5 N 11 15 6 8 - - 0.0
04/01:30am 19.3 18.4 14.8 75 2.6 N 13 17 7 9 - - 0.0
04/01:00am 19.3 18.5 15.0 76 2.5 NNE 13 19 7 10 - - 0.0
04/12:30am 19.6 19.3 15.5 77 2.4 NE 11 17 6 9 - - 0.0
04/12:00am 19.6 18.6 15.5 77 2.4 NNE 15 19 8 10 - - 0.0
 
Date/Time
EST
Temp
°C
App
Temp
°C
Dew
Point
°C
Rel
Hum
%
Delta-T
°C
Wind Press
QNH
hPa
Press
MSL
hPa
Rain since
9am
mm
Dir  Spd
km/h
Gust
km/h
Spd
kts
Gust
kts
03/11:30pm 20.1 18.8 15.7 76 2.6 NE 17 20 9 11 - - 0.0
03/11:00pm 20.0 18.7 15.8 77 2.5 NNE 17 22 9 12 - - 0.0
03/10:30pm 20.2 18.0 16.0 77 2.5 NNE 22 26 12 14 - - 0.0
03/10:00pm 20.5 17.9 15.9 75 2.8 NNE 24 33 13 18 - - 0.0
03/09:30pm 20.6 16.7 15.4 72 3.1 NNE 30 35 16 19 - - 0.0
03/09:00pm 20.8 16.5 15.4 71 3.2 NNE 32 39 17 21 - - 0.0
03/08:30pm 20.8 17.3 15.6 72 3.1 NNE 28 41 15 22 - - 0.0

Latest Capital City Observations: Canberra | Sydney | Melbourne | Brisbane | Adelaide | Perth | Hobart | Darwin

Other formats

Comma delimited format used in spreadsheet applications
http://www.bom.gov.au/fwo/IDN60901/IDN60901.94774.axf

JavaScript Object Notation format (JSON) in row-major order
http://www.bom.gov.au/fwo/IDN60901/IDN60901.94774.json

Data quality

Most of these data are generated automatically and are frequently updated. Quality checks on data are not normally performed. It is possible for incorrect values to appear. Refer to information at About Latest Weather Observations and please check the disclaimer before using these data.